createdAt,value
2023-05-03T00:00:20.930Z,7.32
2023-05-03T00:04:24.239Z,7.28
2023-05-03T00:08:26.962Z,7.19
2023-05-03T00:12:29.671Z,7.09
2023-05-03T00:16:33.732Z,7.04
2023-05-03T00:20:36.812Z,6.92
2023-05-03T00:24:39.489Z,6.85
2023-05-03T00:28:42.885Z,6.82
2023-05-03T00:32:46.915Z,6.79
2023-05-03T00:36:49.681Z,6.70
2023-05-03T00:40:55.563Z,6.60
2023-05-03T00:44:58.324Z,6.57
2023-05-03T00:49:07.685Z,6.53
2023-05-03T00:53:10.490Z,6.52
2023-05-03T00:57:13.242Z,6.49
2023-05-03T01:01:16.598Z,6.40
2023-05-03T01:05:22.239Z,6.34
2023-05-03T01:09:32.402Z,6.26
2023-05-03T01:13:44.901Z,6.20
2023-05-03T01:17:52.470Z,6.19
2023-05-03T01:22:02.074Z,6.18
2023-05-03T01:26:20.182Z,6.18
2023-05-03T01:30:27.821Z,6.18
2023-05-03T01:34:38.092Z,6.16
2023-05-03T01:38:43.449Z,6.17
2023-05-03T01:42:48.553Z,6.13
2023-05-03T01:46:51.228Z,6.11
2023-05-03T01:50:54.597Z,6.07
2023-05-03T01:54:57.333Z,5.99
2023-05-03T01:59:01.619Z,5.97
2023-05-03T02:03:05.470Z,5.94
2023-05-03T02:07:08.211Z,5.88
2023-05-03T02:11:10.910Z,5.84
2023-05-03T02:15:14.992Z,5.81
2023-05-03T02:19:17.590Z,5.77
2023-05-03T02:23:20.249Z,5.74
2023-05-03T02:27:22.912Z,5.72
2023-05-03T02:31:27.421Z,5.77
2023-05-03T02:35:33.692Z,5.82
2023-05-03T02:39:36.671Z,5.79
2023-05-03T02:43:41.013Z,5.75
2023-05-03T02:47:45.310Z,5.72
2023-05-03T02:51:47.913Z,5.68
2023-05-03T02:55:50.776Z,5.65
2023-05-03T02:59:53.545Z,5.62
2023-05-03T03:03:58.877Z,5.59
2023-05-03T03:08:01.691Z,5.55
2023-05-03T03:12:06.855Z,5.53
2023-05-03T03:16:10.617Z,5.52
2023-05-03T03:20:15.007Z,5.48
2023-05-03T03:24:21.606Z,5.45
2023-05-03T03:28:26.237Z,5.41
2023-05-03T03:32:30.653Z,5.23
2023-05-03T03:36:37.946Z,5.11
2023-05-03T03:40:41.031Z,5.06
2023-05-03T03:44:43.843Z,5.00
2023-05-03T03:48:46.689Z,4.93
2023-05-03T03:52:51.140Z,4.89
2023-05-03T03:56:54.094Z,4.89
2023-05-03T04:00:57.917Z,4.88
2023-05-03T04:05:03.771Z,4.90
2023-05-03T04:09:08.003Z,4.90
2023-05-03T04:13:11.901Z,4.84
2023-05-03T04:17:15.802Z,4.78
2023-05-03T04:21:19.757Z,4.75
2023-05-03T04:25:25.585Z,4.70
2023-05-03T04:29:34.048Z,4.55
2023-05-03T04:33:37.014Z,4.50
2023-05-03T04:37:41.919Z,4.46
2023-05-03T04:41:47.507Z,4.44
2023-05-03T04:45:50.504Z,4.44
2023-05-03T04:49:58.612Z,4.52
2023-05-03T04:54:02.223Z,4.60
2023-05-03T04:58:07.164Z,4.66
2023-05-03T05:02:11.341Z,4.71
2023-05-03T05:06:14.087Z,4.77
2023-05-03T05:10:31.299Z,4.86
2023-05-03T05:14:35.424Z,4.93
2023-05-03T05:18:38.581Z,5.08
2023-05-03T05:22:44.376Z,5.23
2023-05-03T05:26:47.683Z,5.38
2023-05-03T05:30:54.760Z,5.48
2023-05-03T05:34:58.554Z,5.64
2023-05-03T05:39:04.226Z,5.78
2023-05-03T05:43:09.598Z,5.92
2023-05-03T05:47:16.595Z,6.04
2023-05-03T05:51:21.567Z,6.14
2023-05-03T05:55:24.847Z,6.28
2023-05-03T05:59:30.390Z,6.47
2023-05-03T06:03:36.161Z,6.66
2023-05-03T06:07:42.248Z,6.89
2023-05-03T06:11:44.960Z,7.23
2023-05-03T06:15:49.619Z,7.61
2023-05-03T06:19:53.614Z,8.16
2023-05-03T06:23:56.453Z,8.64
2023-05-03T06:28:01.227Z,9.28
2023-05-03T06:32:07.452Z,9.82
2023-05-03T06:36:11.998Z,10.34
2023-05-03T06:40:15.645Z,10.73
2023-05-03T06:44:18.320Z,11.23
2023-05-03T06:48:22.381Z,11.60
2023-05-03T06:52:26.538Z,12.06
2023-05-03T06:56:29.837Z,12.22
2023-05-03T07:00:32.657Z,12.42
2023-05-03T07:04:37.638Z,12.65
2023-05-03T07:08:41.682Z,13.12
2023-05-03T07:12:44.356Z,13.41
2023-05-03T07:16:47.225Z,13.71
2023-05-03T07:20:50.062Z,13.92
2023-05-03T07:24:54.932Z,13.88
2023-05-03T07:28:57.729Z,14.18
2023-05-03T07:33:00.704Z,14.26
2023-05-03T07:37:03.459Z,14.52
2023-05-03T07:41:07.763Z,14.93
2023-05-03T07:45:11.172Z,15.09
2023-05-03T07:49:13.795Z,15.27
2023-05-03T07:53:16.473Z,15.33
2023-05-03T07:57:23.202Z,15.40
2023-05-03T08:01:27.330Z,15.52
2023-05-03T08:05:30.323Z,15.66
2023-05-03T08:09:33.165Z,15.93
2023-05-03T08:13:37.140Z,16.18
2023-05-03T08:17:43.940Z,16.34
2023-05-03T08:21:47.806Z,16.03
2023-05-03T08:25:50.469Z,15.76
2023-05-03T08:29:54.644Z,15.66
2023-05-03T08:33:57.271Z,15.96
2023-05-03T08:37:59.955Z,15.86
2023-05-03T08:42:07.914Z,15.95
2023-05-03T08:46:13.521Z,16.19
2023-05-03T08:50:16.746Z,16.16
2023-05-03T08:54:21.200Z,16.35
2023-05-03T08:58:23.886Z,16.58
2023-05-03T09:02:28.181Z,16.98
2023-05-03T09:06:33.058Z,17.13
2023-05-03T09:10:40.613Z,17.42
2023-05-03T09:14:44.847Z,17.79
2023-05-03T09:19:00.962Z,17.92
2023-05-03T09:23:04.166Z,18.06
2023-05-03T09:27:19.316Z,18.26
2023-05-03T09:31:22.596Z,18.24
2023-05-03T09:35:27.008Z,18.27
2023-05-03T09:39:30.184Z,18.39
2023-05-03T09:43:33.390Z,18.58
2023-05-03T09:47:51.581Z,18.87
2023-05-03T09:51:56.382Z,18.82
2023-05-03T09:56:01.017Z,18.65
2023-05-03T10:00:05.766Z,18.77
2023-05-03T10:04:18.035Z,18.85
2023-05-03T10:08:33.982Z,18.95
2023-05-03T10:12:54.831Z,19.02
2023-05-03T10:17:02.024Z,19.30
2023-05-03T10:21:10.198Z,19.30
2023-05-03T10:25:15.882Z,19.22
2023-05-03T10:29:48.714Z,19.33
2023-05-03T10:33:51.648Z,19.44
2023-05-03T10:37:56.884Z,19.27
2023-05-03T10:42:04.829Z,19.43
2023-05-03T10:46:11.907Z,19.51
2023-05-03T10:50:29.582Z,19.79
2023-05-03T10:54:32.232Z,19.66
2023-05-03T10:58:38.632Z,19.76
2023-05-03T11:02:53.425Z,19.84
2023-05-03T11:06:56.822Z,19.87
2023-05-03T11:11:02.438Z,20.07
2023-05-03T11:15:07.372Z,20.11
2023-05-03T11:19:11.665Z,20.04
2023-05-03T11:23:14.681Z,20.31
2023-05-03T11:27:25.203Z,20.16
2023-05-03T11:31:29.412Z,20.07
2023-05-03T11:35:32.970Z,19.89
2023-05-03T11:39:37.332Z,20.04
2023-05-03T11:43:42.158Z,20.04
2023-05-03T11:47:46.298Z,19.81
2023-05-03T11:51:52.605Z,19.51
2023-05-03T11:55:56.688Z,19.65
2023-05-03T12:00:13.169Z,19.89
2023-05-03T12:04:18.144Z,19.98
2023-05-03T12:08:22.001Z,19.93
2023-05-03T12:12:30.461Z,20.10
2023-05-03T12:16:50.308Z,20.21
2023-05-03T12:25:04.874Z,19.99
2023-05-03T12:29:07.833Z,20.07
2023-05-03T12:33:11.700Z,20.12
2023-05-03T12:37:17.547Z,20.67
2023-05-03T12:41:51.961Z,20.90
2023-05-03T12:45:49.372Z,20.95
2023-05-03T12:49:59.641Z,20.99
2023-05-03T12:54:10.032Z,20.93
2023-05-03T12:58:43.197Z,21.02
2023-05-03T13:06:43.782Z,20.67
2023-05-03T13:10:49.340Z,20.45
2023-05-03T13:14:53.761Z,20.38
2023-05-03T13:18:56.838Z,20.64
2023-05-03T13:23:00.124Z,20.87
2023-05-03T13:27:04.708Z,20.90
2023-05-03T13:31:07.359Z,20.93
2023-05-03T13:35:11.007Z,20.86
2023-05-03T13:39:13.800Z,20.81
2023-05-03T13:43:17.819Z,20.98
2023-05-03T13:47:20.791Z,21.10
2023-05-03T13:51:25.900Z,21.06
2023-05-03T13:55:29.626Z,21.02
2023-05-03T13:59:33.598Z,20.90
2023-05-03T14:03:36.684Z,20.81
2023-05-03T14:07:39.414Z,20.79
2023-05-03T14:11:42.418Z,20.65
2023-05-03T14:15:46.655Z,20.45
2023-05-03T14:19:49.458Z,20.28
2023-05-03T14:23:52.926Z,20.37
2023-05-03T14:27:56.563Z,20.42
2023-05-03T14:32:01.036Z,20.49
2023-05-03T14:36:04.431Z,20.57
2023-05-03T14:40:08.889Z,20.57
2023-05-03T14:44:11.824Z,20.47
2023-05-03T14:48:16.423Z,20.29
2023-05-03T14:52:19.099Z,20.07
2023-05-03T14:56:21.792Z,19.99
2023-05-03T15:00:25.705Z,19.88
2023-05-03T15:04:30.796Z,19.88
2023-05-03T15:08:33.497Z,19.87
2023-05-03T15:12:36.408Z,19.71
2023-05-03T15:16:39.480Z,19.61
2023-05-03T15:20:43.808Z,19.54
2023-05-03T15:24:46.918Z,19.35
2023-05-03T15:28:49.582Z,19.18
2023-05-03T15:32:52.324Z,18.95
2023-05-03T15:36:56.406Z,18.90
2023-05-03T15:40:59.027Z,18.76
2023-05-03T15:45:01.744Z,18.61
2023-05-03T15:49:05.196Z,18.45
2023-05-03T15:53:09.233Z,18.23
2023-05-03T15:57:12.074Z,18.24
2023-05-03T16:01:14.740Z,18.12
2023-05-03T16:05:18.212Z,18.10
2023-05-03T16:09:23.357Z,17.98
2023-05-03T16:13:26.189Z,17.83
2023-05-03T16:17:28.944Z,17.82
2023-05-03T16:21:32.401Z,17.78
2023-05-03T16:25:36.539Z,17.80
2023-05-03T16:29:39.606Z,17.72
2023-05-03T16:33:42.311Z,17.61
2023-05-03T16:37:44.967Z,17.63
2023-05-03T16:41:49.069Z,17.62
2023-05-03T16:45:58.512Z,17.47
2023-05-03T16:50:01.234Z,17.36
2023-05-03T16:54:05.282Z,17.34
2023-05-03T16:58:09.290Z,17.27
2023-05-03T17:02:12.051Z,17.18
2023-05-03T17:06:16.018Z,17.19
2023-05-03T17:10:19.453Z,17.14
2023-05-03T17:14:23.568Z,17.05
2023-05-03T17:18:26.221Z,16.92
2023-05-03T17:22:29.034Z,16.83
2023-05-03T17:26:32.775Z,16.79
2023-05-03T17:30:36.781Z,16.61
2023-05-03T17:34:39.442Z,16.54
2023-05-03T17:38:42.646Z,16.33
2023-05-03T17:42:46.766Z,16.28
2023-05-03T17:46:51.515Z,16.19
2023-05-03T17:51:03.043Z,16.13
2023-05-03T17:55:06.687Z,16.09
2023-05-03T17:59:09.471Z,16.06
2023-05-03T18:03:14.415Z,15.94
2023-05-03T18:07:17.250Z,15.78
2023-05-03T18:11:20.579Z,15.73
2023-05-03T18:15:23.550Z,15.65
2023-05-03T18:19:28.225Z,15.55
2023-05-03T18:23:32.697Z,15.50
2023-05-03T18:27:37.447Z,15.45
2023-05-03T18:31:46.922Z,15.28
2023-05-03T18:35:52.443Z,15.12
2023-05-03T18:39:56.759Z,15.07
2023-05-03T18:44:05.431Z,14.98
2023-05-03T18:48:08.822Z,14.81
2023-05-03T18:52:13.540Z,14.70
2023-05-03T18:56:16.471Z,14.64
2023-05-03T19:00:20.127Z,14.55
2023-05-03T19:04:24.165Z,14.44
2023-05-03T19:08:30.272Z,14.35
2023-05-03T19:12:33.239Z,14.25
2023-05-03T19:16:37.729Z,14.17
2023-05-03T19:20:41.515Z,14.08
2023-05-03T19:24:46.863Z,14.02
2023-05-03T19:28:49.946Z,13.90
2023-05-03T19:32:53.024Z,13.83
2023-05-03T19:36:55.848Z,13.71
2023-05-03T19:41:00.906Z,13.61
2023-05-03T19:45:04.094Z,13.51
2023-05-03T19:49:07.438Z,13.40
2023-05-03T19:53:20.258Z,13.30
2023-05-03T19:57:24.852Z,13.17
2023-05-03T20:01:29.089Z,13.07
2023-05-03T20:05:39.329Z,12.97
2023-05-03T20:09:42.391Z,12.89
2023-05-03T20:13:49.228Z,12.81
2023-05-03T20:17:54.287Z,12.73
2023-05-03T20:21:57.462Z,12.64
2023-05-03T20:26:01.500Z,12.53
2023-05-03T20:30:29.008Z,12.43
2023-05-03T20:34:31.940Z,12.37
2023-05-03T20:38:34.651Z,12.30
2023-05-03T20:42:37.352Z,12.19
2023-05-03T20:46:41.703Z,12.09
2023-05-03T20:50:44.589Z,12.06
2023-05-03T20:54:47.577Z,11.96
2023-05-03T20:58:50.625Z,11.91
2023-05-03T21:02:55.185Z,11.86
2023-05-03T21:06:58.368Z,11.76
2023-05-03T21:11:01.066Z,11.71
2023-05-03T21:15:04.129Z,11.61
2023-05-03T21:19:08.487Z,11.52
2023-05-03T21:23:11.687Z,11.45
2023-05-03T21:27:15.248Z,11.36
2023-05-03T21:31:18.503Z,11.28
2023-05-03T21:35:22.870Z,11.18
2023-05-03T21:39:25.602Z,11.02
2023-05-03T21:43:28.270Z,10.94
2023-05-03T21:47:31.310Z,10.86
2023-05-03T21:51:35.515Z,10.79
2023-05-03T21:55:38.185Z,10.73
2023-05-03T21:59:42.942Z,10.63
2023-05-03T22:03:45.680Z,10.59
2023-05-03T22:07:51.163Z,10.57
2023-05-03T22:11:53.880Z,10.56
2023-05-03T22:15:56.663Z,10.46
2023-05-03T22:19:59.668Z,10.38
2023-05-03T22:24:04.361Z,10.29
2023-05-03T22:28:07.061Z,10.28
2023-05-03T22:32:09.756Z,10.23
2023-05-03T22:36:14.480Z,10.18
2023-05-03T22:40:19.129Z,10.12
2023-05-03T22:44:21.824Z,10.02
2023-05-03T22:48:29.629Z,9.95
2023-05-03T22:52:32.803Z,9.84
2023-05-03T22:56:37.485Z,9.82
2023-05-03T23:00:40.840Z,9.75
2023-05-03T23:04:43.446Z,9.69
2023-05-03T23:08:46.091Z,9.65
2023-05-03T23:12:50.304Z,9.68
2023-05-03T23:16:53.145Z,9.63
2023-05-03T23:21:00.946Z,9.56
2023-05-03T23:25:03.993Z,9.52
2023-05-03T23:29:08.241Z,9.50
2023-05-03T23:33:19.123Z,9.42
2023-05-03T23:37:22.694Z,9.40
2023-05-03T23:41:34.178Z,9.27
2023-05-03T23:45:38.605Z,9.20
2023-05-03T23:49:41.297Z,9.17
2023-05-03T23:53:43.948Z,9.14
2023-05-03T23:57:46.890Z,9.09
